地図

経路データ

SID SEASON NUMBER BASIN SUBBASIN NAME ISO_TIME NATURE LAT LON WMO_WIND WMO_PRES WMO_AGENCY TRACK_TYPE DIST2LAND LANDFALL IFLAG USA_AGENCY USA_ATCF_ID USA_LAT USA_LON USA_RECORD USA_STATUS USA_WIND USA_PRES USA_SSHS USA_R34_NE USA_R34_SE USA_R34_SW USA_R34_NW USA_R50_NE USA_R50_SE USA_R50_SW USA_R50_NW USA_R64_NE USA_R64_SE USA_R64_SW USA_R64_NW USA_POCI USA_ROCI USA_RMW USA_EYE TOKYO_LAT TOKYO_LON TOKYO_GRADE TOKYO_WIND TOKYO_PRES TOKYO_R50_DIR TOKYO_R50_LONG TOKYO_R50_SHORT TOKYO_R30_DIR TOKYO_R30_LONG TOKYO_R30_SHORT TOKYO_LAND CMA_LAT CMA_LON CMA_CAT CMA_WIND CMA_PRES HKO_LAT HKO_LON HKO_CAT HKO_WIND HKO_PRES NEWDELHI_LAT NEWDELHI_LON NEWDELHI_GRADE NEWDELHI_WIND NEWDELHI_PRES NEWDELHI_CI NEWDELHI_DP NEWDELHI_POCI REUNION_LAT REUNION_LON REUNION_TYPE REUNION_WIND REUNION_PRES REUNION_TNUM REUNION_CI REUNION_RMW REUNION_R34_NE REUNION_R34_SE REUNION_R34_SW REUNION_R34_NW REUNION_R50_NE REUNION_R50_SE REUNION_R50_SW REUNION_R50_NW REUNION_R64_NE REUNION_R64_SE REUNION_R64_SW REUNION_R64_NW BOM_LAT BOM_LON BOM_TYPE BOM_WIND BOM_PRES BOM_TNUM BOM_CI BOM_RMW BOM_R34_NE BOM_R34_SE BOM_R34_SW BOM_R34_NW BOM_R50_NE BOM_R50_SE BOM_R50_SW BOM_R50_NW BOM_R64_NE BOM_R64_SE BOM_R64_SW BOM_R64_NW BOM_ROCI BOM_POCI BOM_EYE BOM_POS_METHOD BOM_PRES_METHOD NADI_LAT NADI_LON NADI_CAT NADI_WIND NADI_PRES WELLINGTON_LAT WELLINGTON_LON WELLINGTON_WIND WELLINGTON_PRES DS824_LAT DS824_LON DS824_STAGE DS824_WIND DS824_PRES TD9636_LAT TD9636_LON TD9636_STAGE TD9636_WIND TD9636_PRES TD9635_LAT TD9635_LON TD9635_WIND TD9635_PRES TD9635_ROCI NEUMANN_LAT NEUMANN_LON NEUMANN_CLASS NEUMANN_WIND NEUMANN_PRES MLC_LAT MLC_LON MLC_CLASS MLC_WIND MLC_PRES USA_GUST BOM_GUST BOM_GUST_PER REUNION_GUST REUNION_GUST_PER USA_SEAHGT USA_SEARAD_NE USA_SEARAD_SE USA_SEARAD_SW USA_SEARAD_NW STORM_SPEED STORM_DIR
1962032S17129 1962 11 SI WA NOT_NAMED 1962-01-31 18:00:00 TS -16.6000 129.000 spur-merge 0 0 O________O____ jtwc_sh SH111962 -16.6000 129.000 -1 -16.6000 129.000 TC 2 0
1962032S17129 1962 11 SI WA NOT_NAMED 1962-01-31 21:00:00 TS -16.6912 129.012 spur-merge 0 0 P________P____ SH111962 -16.6800 129.022 -1 -16.6800 129.022 TC 2 173
1962032S17129 1962 11 SI WA NOT_NAMED 1962-01-31 23:00:00 TS -16.7664 129.007 spur-merge 0 0 P________PO___ SH111962 -16.7531 129.015 -1 -16.7531 129.015 TC -16.8000 129.000 1 2 192
1962032S17129 1962 11 SI WA NOT_NAMED 1962-02-01 00:00:00 TS -16.8135 128.996 spur-merge 0 0 O________OP___ jtwc_sh SH111962 -16.8000 129.000 -1 -16.8000 129.000 TC -16.8474 128.969 1 3 201
1962032S17129 1962 11 SI WA NOT_NAMED 1962-02-01 01:00:00 TS -16.8709 128.973 spur-merge 0 0 P________PP___ SH111962 -16.8553 128.975 -1 -16.8553 128.975 TC -16.8953 128.938 1 4 203
1962032S17129 1962 11 SI WA NOT_NAMED 1962-02-01 03:00:00 TS -16.9950 128.914 spur-merge 0 0 P________PP___ SH111962 -16.9850 128.908 -1 -16.9850 128.908 TC -16.9942 128.878 1 4 205
1962032S17129 1962 11 SI WA NOT_NAMED 1962-02-01 06:00:00 TS -17.1988 128.818 spur-merge 0 0 O________OP___ jtwc_sh SH111962 -17.2000 128.800 -1 -17.2000 128.800 TC -17.1575 128.796 1 4 203
1962032S17129 1962 11 SI WA NOT_NAMED 1962-02-01 07:00:00 TS -17.2656 128.796 spur-merge 0 0 P________PP___ SH111962 -17.2693 128.780 -1 -17.2693 128.780 TC -17.2178 128.772 1 4 197
1962032S17129 1962 11 SI WA NOT_NAMED 1962-02-01 09:00:00 TS -17.3987 128.756 spur-merge 0 0 P________PP___ SH111962 -17.4075 128.750 -1 -17.4075 128.750 TC -17.3497 128.731 1 4 196
1962032S17129 1962 11 SI WA NOT_NAMED 1962-02-01 11:00:00 TS -17.5260 128.713 spur-merge 0 0 P________PO___ SH111962 -17.5390 128.720 -1 -17.5390 128.720 TC -17.5000 128.700 2 4 194
1962032S17129 1962 11 SI WA NOT_NAMED 1962-02-01 12:00:00 TS -17.5942 128.696 spur-merge 0 0 O________OP___ jtwc_sh SH111962 -17.6000 128.700 -1 -17.6000 128.700 TC -17.5827 128.689 2 4 196
1962032S17129 1962 11 SI WA NOT_NAMED 1962-02-01 15:00:00 TS -17.7891 128.633 spur-merge 0 0 P________PP___ SH111962 -17.7650 128.622 -1 -17.7650 128.622 TC -17.8373 128.654 2 4 204
1962032S17129 1962 11 SI WA NOT_NAMED 1962-02-01 18:00:00 TS -17.9488 128.525 spur-merge 0 0 O________OP___ jtwc_sh SH111962 -17.9000 128.500 -1 -17.9000 128.500 TC -18.0464 128.575 2 4 217
1962032S17129 1962 11 SI WA NOT_NAMED 1962-02-01 21:00:00 TS -18.1060 128.383 spur-merge 0 0 P________PP___ SH111962 -18.0897 128.376 -1 -18.0897 128.376 TC -18.1387 128.399 2 4 240
1962032S17129 1962 11 SI WA NOT_NAMED 1962-02-01 23:00:00 TS -18.1213 128.212 spur-merge 0 0 P________PO___ SH111962 -18.1319 128.218 -1 -18.1319 128.218 TC -18.1000 128.200 1 6 276
1962032S17129 1962 11 SI WA NOT_NAMED 1962-02-02 00:00:00 TS -18.0749 128.085 spur-merge 0 0 O________OP___ jtwc_sh SH111962 -18.1000 128.100 -1 -18.1000 128.100 TC -18.0248 128.054 1 9 297
1962032S17129 1962 11 SI WA NOT_NAMED 1962-02-02 01:00:00 TS -17.9853 127.926 spur-merge 0 0 P________PP___ SH111962 -18.0156 127.945 -1 -18.0156 127.945 TC -17.9249 127.888 1 13 305
1962032S17129 1962 11 SI WA NOT_NAMED 1962-02-02 03:00:00 TS -17.7149 127.543 spur-merge 0 0 P________PP___ SH111962 -17.7402 127.559 -1 -17.7402 127.559 TC -17.6642 127.509 1 15 309
1962032S17129 1962 11 SI WA NOT_NAMED 1962-02-02 06:00:00 TS -17.1903 126.889 spur-merge 0 0 O________OP___ jtwc_sh SH111962 -17.2000 126.900 -1 -17.2000 126.900 TC -17.1708 126.866 1 16 310
1962032S17129 1962 11 SI WA NOT_NAMED 1962-02-02 09:00:00 TS -16.6734 126.254 spur-merge 0 0 P________PP___ SH111962 -16.6925 126.277 -1 -16.6925 126.277 TC -16.6353 126.208 1 16 311
1962032S17129 1962 11 SI WA NOT_NAMED 1962-02-02 11:00:00 TS -16.3386 125.855 spur-merge 0 0 P________PO___ SH111962 -16.3579 125.883 -1 -16.3579 125.883 TC -16.3000 125.800 2 15 312
1962032S17129 1962 11 SI WA NOT_NAMED 1962-02-02 12:00:00 TS -16.1837 125.680 spur-merge 0 0 O________OP___ jtwc_sh SH111962 -16.2000 125.700 -1 -16.2000 125.700 TC -16.1511 125.641 2 13 314
1962032S17129 1962 11 SI WA NOT_NAMED 1962-02-02 15:00:00 TS -15.7441 125.220 spur-merge 0 0 P________PP___ SH111962 -15.7548 125.228 -1 -15.7548 125.228 TC -15.7227 125.206 2 12 313
1962032S17129 1962 11 SI WA NOT_NAMED 1962-02-02 18:00:00 TS -15.3853 124.801 spur-merge 0 0 O________OP___ jtwc_sh SH111962 -15.4000 124.800 -1 -15.4000 124.800 TC -15.3559 124.802 2 10 307
1962032S17129 1962 11 SI WA NOT_NAMED 1962-02-02 21:00:00 TS -15.1197 124.374 spur-merge 44 44 P________PP___ SH111962 -15.1323 124.365 -1 -15.1323 124.365 TC -15.0944 124.393 2 10 298
1962032S17129 1962 11 SI WA NOT_NAMED 1962-02-02 23:00:00 TS -15.0183 124.074 spur-merge 74 79 P________PO___ SH111962 -15.0275 124.061 -1 -15.0275 124.061 TC -15.0000 124.100 2 9 286
1962032S17129 1962 11 SI WA NOT_NAMED 1962-02-03 00:00:00 TS -14.9922 123.910 spur-merge 85 85 O________OP___ jtwc_sh SH111962 -15.0000 123.900 -1 -15.0000 123.900 TC -14.9765 123.929 2 10 278
1962032S17129 1962 11 SI WA NOT_NAMED 1962-02-03 01:00:00 TS -14.9736 123.736 spur-merge 100 100 P________PP___ SH111962 -14.9750 123.728 -1 -14.9750 123.728 TC -14.9707 123.752 2 10 271
1962032S17129 1962 11 SI WA NOT_NAMED 1962-02-03 03:00:00 TS -14.9856 123.372 spur-merge 126 126 P________PP___ SH111962 -14.9750 123.365 -1 -14.9750 123.365 TC -15.0068 123.385 2 11 261
1962032S17129 1962 11 SI WA NOT_NAMED 1962-02-03 06:00:00 TS -15.1203 122.806 spur-merge 156 138 O________OP___ jtwc_sh SH111962 -15.1000 122.800 -1 -15.1000 122.800 TC -15.1610 122.819 2 12 251
1962032S17129 1962 11 SI WA NOT_NAMED 1962-02-03 09:00:00 TS -15.3716 122.238 spur-merge 144 140 P________PP___ SH111962 -15.3550 122.228 -1 -15.3550 122.228 TC -15.4047 122.257 2 12 242
1962032S17129 1962 11 SI WA NOT_NAMED 1962-02-03 11:00:00 TS -15.5875 121.878 spur-merge 146 146 P________PO___ SH111962 -15.5812 121.866 -1 -15.5812 121.866 TC -15.6000 121.900 4 12 237
1962032S17129 1962 11 SI WA NOT_NAMED 1962-02-03 12:00:00 TS -15.6969 121.714 spur-merge 154 154 O________OP___ jtwc_sh SH111962 -15.7000 121.700 -1 -15.7000 121.700 TC -15.6908 121.741 4 11 232
1962032S17129 1962 11 SI WA NOT_NAMED 1962-02-03 15:00:00 TS -16.0308 121.291 spur-merge 162 154 P________PP___ SH111962 -16.0422 121.292 -1 -16.0422 121.292 TC -16.0079 121.290 4 11 229
1962032S17129 1962 11 SI WA NOT_NAMED 1962-02-03 18:00:00 TS -16.3902 120.885 spur-merge 168 168 O________OP___ jtwc_sh SH111962 -16.4000 120.900 -1 -16.4000 120.900 TC -16.3706 120.855 4 11 229
1962032S17129 1962 11 SI WA NOT_NAMED 1962-02-03 21:00:00 TS -16.7502 120.414 spur-merge 199 199 P________PP___ SH111962 -16.7500 120.415 -1 -16.7500 120.415 TC -16.7508 120.412 4 12 232
1962032S17129 1962 11 SI WA NOT_NAMED 1962-02-03 23:00:00 TS -16.9889 120.081 spur-merge 222 222 P________PO___ SH111962 -16.9833 120.072 -1 -16.9833 120.072 TC -17.0000 120.100 1 12 233
1962032S17129 1962 11 SI WA NOT_NAMED 1962-02-04 00:00:00 TS -17.1059 119.912 spur-merge 240 240 O________OP___ jtwc_sh SH111962 -17.1000 119.900 -1 -17.1000 119.900 TC -17.1204 119.936 1 12 233
1962032S17129 1962 11 SI WA NOT_NAMED 1962-02-04 01:00:00 TS -17.2245 119.749 spur-merge 258 256 P________PP___ SH111962 -17.2192 119.738 -1 -17.2192 119.738 TC -17.2378 119.768 1 12 233
1962032S17129 1962 11 SI WA NOT_NAMED 1962-02-04 03:00:00 TS -17.4607 119.418 spur-merge 272 257 P________PP___ SH111962 -17.4573 119.415 -1 -17.4573 119.415 TC -17.4644 119.417 1 12 235
1962032S17129 1962 11 SI WA NOT_NAMED 1962-02-04 06:00:00 TS -17.8013 118.894 spur-merge 258 235 O________OP___ jtwc_sh SH111962 -17.8000 118.900 -1 -17.8000 118.900 TC -17.7878 118.864 1 12 238
1962032S17129 1962 11 SI WA NOT_NAMED 1962-02-04 09:00:00 TS -18.1144 118.332 spur-merge 239 232 P________PP___ SH111962 -18.1146 118.345 -1 -18.1146 118.345 TC -18.0976 118.289 1 13 241
1962032S17129 1962 11 SI WA NOT_NAMED 1962-02-04 11:00:00 TS -18.3054 117.919 spur-merge 235 225 P________PO___ SH111962 -18.3081 117.928 -1 -18.3081 117.928 TC -18.3000 117.900 1 13 245
1962032S17129 1962 11 SI WA NOT_NAMED 1962-02-04 12:00:00 TS -18.3980 117.691 spur-merge 227 212 O________O____ jtwc_sh SH111962 -18.4000 117.700 -1 -18.4000 117.700 TC 1 16 249
1962032S17129 1962 11 SI WA NOT_NAMED 1962-02-04 15:00:00 TS -18.6719 116.895 spur-merge 212 194 P________P____ SH111962 -18.6584 116.936 -1 -18.6584 116.936 TC 1 16 252
1962032S17129 1962 11 SI WA NOT_NAMED 1962-02-04 18:00:00 TS -18.8915 116.118 spur-merge 200 197 O________O____ jtwc_sh SH111962 -18.9000 116.100 -1 -18.9000 116.100 TC 1 14 255
1962032S17129 1962 11 SI WA NOT_NAMED 1962-02-04 21:00:00 TS -19.0297 115.502 spur-merge 218 ______________ SH111962 -1 TC 1 12 257

IBTrACS Databaseについて

本データベースは、米国NOAAが公開する1842年以降の世界の熱帯低気圧のベストトラックデータアーカイブInternational Best Track Archive for Climate Stewardship (IBTrACS)を、ウェブで閲覧しやすい形式に変換したものです。

最終更新日:2021-12-06